AFR1894 LFPG-LMML
Flight info
| Callsign | AFR1894 |
|---|---|
| Flight time | 2h 22m |
| Altitude | 35000 |
| Route | OKASI DCT OKEKO DCT MOU DCT MADIV DCT MOKIP DCT TUFTA DCT KOGAS DCT MEDAM DCT NITAM DCT MOGBO DCT TIDKA/N0433F370 DCT KONER DCT RONAB DCT GIANO DCT MARON DCT EKOLA L12 GZO |
| Aircraft | A320/M-SDE3FGHIRWY/LB1 |
Departure
| Time | 2026-05-01 12:52 |
|---|---|
| Airport | Charles de Gaulle International Airport (LFPG) |
Arrival
| Time | 2026-05-01 15:15 |
|---|---|
| Airport | Malta International Airport (LMML) |
| Time | Latitude | Longitude | Altitude | Speed | Heading |
|---|---|---|---|---|---|
| 2026-05-01 12:11 | 49.00715 | 2.57444 | 0 ft | 0 kts | 208° |
| 2026-05-01 12:36 | 49.00716 | 2.57445 | 0 ft | 2 kts | 208° |
| 2026-05-01 12:36 | 49.00738 | 2.57464 | 356 ft | 4 kts | 215° |
| 2026-05-01 12:36 | 49.00759 | 2.57489 | 362 ft | 4 kts | 225° |
| 2026-05-01 12:36 | 49.00776 | 2.57520 | 363 ft | 4 kts | 237° |
| 2026-05-01 12:37 | 49.00788 | 2.57557 | 361 ft | 4 kts | 259° |
| 2026-05-01 12:37 | 49.00790 | 2.57570 | 362 ft | 1 kts | 266° |
| 2026-05-01 12:40 | 49.00790 | 2.57565 | 363 ft | 1 kts | 265° |
| 2026-05-01 12:40 | 49.00785 | 2.57497 | 361 ft | 8 kts | 264° |
| 2026-05-01 12:41 | 49.00781 | 2.57427 | 357 ft | 11 kts | 265° |
| 2026-05-01 12:41 | 49.00776 | 2.57322 | 360 ft | 9 kts | 265° |
| 2026-05-01 12:41 | 49.00779 | 2.57238 | 355 ft | 7 kts | 297° |
| 2026-05-01 12:41 | 49.00816 | 2.57211 | 358 ft | 5 kts | 347° |
| 2026-05-01 12:42 | 49.00850 | 2.57170 | 359 ft | 9 kts | 302° |
| 2026-05-01 12:42 | 49.00851 | 2.57053 | 361 ft | 12 kts | 265° |
| 2026-05-01 12:42 | 49.00844 | 2.56919 | 355 ft | 14 kts | 266° |
| 2026-05-01 12:42 | 49.00836 | 2.56767 | 359 ft | 14 kts | 265° |
| 2026-05-01 12:43 | 49.00828 | 2.56633 | 355 ft | 12 kts | 265° |
| 2026-05-01 12:43 | 49.00821 | 2.56517 | 359 ft | 11 kts | 264° |
| 2026-05-01 12:43 | 49.00810 | 2.56379 | 360 ft | 15 kts | 262° |
| 2026-05-01 12:43 | 49.00794 | 2.56203 | 362 ft | 19 kts | 262° |
| 2026-05-01 12:44 | 49.00774 | 2.56000 | 355 ft | 20 kts | 262° |
| 2026-05-01 12:44 | 49.00754 | 2.55785 | 355 ft | 21 kts | 262° |
| 2026-05-01 12:44 | 49.00726 | 2.55435 | 355 ft | 12 kts | 264° |
| 2026-05-01 12:45 | 49.00656 | 2.55246 | 357 ft | 11 kts | 193° |
| 2026-05-01 12:45 | 49.00575 | 2.55275 | 360 ft | 13 kts | 164° |
| 2026-05-01 12:45 | 49.00467 | 2.55321 | 357 ft | 18 kts | 165° |
| 2026-05-01 12:46 | 49.00341 | 2.55376 | 358 ft | 19 kts | 164° |
| 2026-05-01 12:46 | 49.00207 | 2.55434 | 357 ft | 20 kts | 163° |
| 2026-05-01 12:46 | 49.00068 | 2.55495 | 361 ft | 21 kts | 164° |
| 2026-05-01 12:46 | 48.99952 | 2.55544 | 357 ft | 15 kts | 161° |
| 2026-05-01 12:47 | 48.99867 | 2.55633 | 357 ft | 16 kts | 128° |
| 2026-05-01 12:47 | 48.99830 | 2.55761 | 354 ft | 9 kts | 110° |
| 2026-05-01 12:47 | 48.99819 | 2.55790 | 359 ft | 3 kts | 129° |
| 2026-05-01 12:47 | 48.99779 | 2.55795 | 357 ft | 8 kts | 201° |
| 2026-05-01 12:48 | 48.99751 | 2.55714 | 356 ft | 11 kts | 265° |
| 2026-05-01 12:48 | 48.99744 | 2.55572 | 354 ft | 15 kts | 266° |
| 2026-05-01 12:48 | 48.99740 | 2.55485 | 354 ft | 0 kts | 263° |
| 2026-05-01 12:48 | 48.99736 | 2.55468 | 354 ft | 6 kts | 247° |
| 2026-05-01 12:49 | 48.99700 | 2.55436 | 358 ft | 3 kts | 189° |
| 2026-05-01 12:49 | 48.99698 | 2.55436 | 358 ft | 0 kts | 187° |
| 2026-05-01 12:50 | 48.99696 | 2.55435 | 357 ft | 2 kts | 186° |
| 2026-05-01 12:50 | 48.99659 | 2.55462 | 364 ft | 10 kts | 140° |
| 2026-05-01 12:51 | 48.99608 | 2.55528 | 355 ft | 10 kts | 141° |
| 2026-05-01 12:51 | 48.99589 | 2.55627 | 355 ft | 9 kts | 86° |
| 2026-05-01 12:51 | 48.99631 | 2.56405 | 360 ft | 94 kts | 85° |
| 2026-05-01 12:52 | 48.99699 | 2.57686 | 360 ft | 146 kts | 85° |
| 2026-05-01 12:52 | 48.99896 | 2.61190 | 1232 ft | 170 kts | 86° |
| 2026-05-01 12:52 | 48.99997 | 2.62972 | 1922 ft | 169 kts | 86° |
| 2026-05-01 12:53 | 49.00206 | 2.66852 | 2871 ft | 201 kts | 86° |
| 2026-05-01 12:53 | 49.00326 | 2.69062 | 3310 ft | 220 kts | 87° |
| 2026-05-01 12:53 | 49.00446 | 2.71489 | 3785 ft | 242 kts | 88° |
| 2026-05-01 12:54 | 49.00576 | 2.74153 | 4361 ft | 261 kts | 88° |
| 2026-05-01 12:54 | 49.00584 | 2.79824 | 6043 ft | 272 kts | 99° |
| 2026-05-01 12:54 | 49.00295 | 2.82717 | 6957 ft | 274 kts | 101° |
| 2026-05-01 12:55 | 48.99653 | 2.88490 | 8649 ft | 280 kts | 101° |
| 2026-05-01 12:55 | 48.99327 | 2.91428 | 9487 ft | 282 kts | 102° |
| 2026-05-01 12:55 | 48.99006 | 2.94393 | 10286 ft | 285 kts | 101° |
| 2026-05-01 12:56 | 48.98570 | 2.97408 | 10685 ft | 302 kts | 113° |
| 2026-05-01 12:56 | 48.97445 | 3.00190 | 11080 ft | 315 kts | 134° |
| 2026-05-01 12:56 | 48.95689 | 3.02194 | 11752 ft | 320 kts | 154° |
| 2026-05-01 12:56 | 48.93548 | 3.03143 | 12113 ft | 324 kts | 174° |
| 2026-05-01 12:57 | 48.91310 | 3.02717 | 12570 ft | 331 kts | 198° |
| 2026-05-01 12:57 | 48.87291 | 2.99099 | 14008 ft | 340 kts | 211° |
| 2026-05-01 12:57 | 48.85309 | 2.97122 | 14684 ft | 343 kts | 210° |
| 2026-05-01 12:58 | 48.83307 | 2.95120 | 15334 ft | 346 kts | 210° |
| 2026-05-01 12:58 | 48.81288 | 2.93101 | 15962 ft | 349 kts | 210° |
| 2026-05-01 12:58 | 48.79248 | 2.91064 | 16555 ft | 353 kts | 210° |
| 2026-05-01 12:59 | 48.75102 | 2.86947 | 17725 ft | 359 kts | 210° |
| 2026-05-01 12:59 | 48.73005 | 2.84868 | 18272 ft | 362 kts | 210° |
| 2026-05-01 12:59 | 48.68752 | 2.80643 | 19369 ft | 368 kts | 210° |
| 2026-05-01 13:00 | 48.64425 | 2.76366 | 20405 ft | 375 kts | 210° |
| 2026-05-01 13:00 | 48.62236 | 2.74200 | 20910 ft | 378 kts | 210° |
| 2026-05-01 13:01 | 48.57806 | 2.69824 | 21877 ft | 383 kts | 209° |
| 2026-05-01 13:01 | 48.55567 | 2.67621 | 22332 ft | 386 kts | 209° |
| 2026-05-01 13:01 | 48.50971 | 2.63338 | 23217 ft | 388 kts | 201° |
| 2026-05-01 13:02 | 48.48439 | 2.61988 | 23633 ft | 386 kts | 190° |
| 2026-05-01 13:07 | 47.93412 | 2.87267 | 30385 ft | 426 kts | 155° |
| 2026-05-01 13:07 | 47.90673 | 2.88978 | 30620 ft | 428 kts | 155° |
| 2026-05-01 13:07 | 47.87930 | 2.90711 | 30879 ft | 429 kts | 154° |
| 2026-05-01 13:08 | 47.85180 | 2.92458 | 31169 ft | 430 kts | 154° |
| 2026-05-01 13:08 | 47.82437 | 2.94203 | 31521 ft | 428 kts | 154° |
| 2026-05-01 13:08 | 47.79703 | 2.95937 | 31878 ft | 427 kts | 154° |
| 2026-05-01 13:08 | 47.76975 | 2.97663 | 32229 ft | 425 kts | 155° |
| 2026-05-01 13:09 | 47.74254 | 2.99383 | 32565 ft | 424 kts | 155° |
| 2026-05-01 13:09 | 47.71547 | 3.01088 | 32887 ft | 423 kts | 155° |
| 2026-05-01 13:09 | 47.68830 | 3.02795 | 33228 ft | 422 kts | 155° |
| 2026-05-01 13:09 | 47.66125 | 3.04491 | 33555 ft | 421 kts | 155° |
| 2026-05-01 13:10 | 47.63432 | 3.06178 | 33881 ft | 420 kts | 155° |
| 2026-05-01 13:10 | 47.60742 | 3.07859 | 34199 ft | 419 kts | 155° |
| 2026-05-01 13:10 | 47.58060 | 3.09535 | 34470 ft | 419 kts | 155° |
| 2026-05-01 13:10 | 47.55333 | 3.11241 | 34682 ft | 420 kts | 155° |
| 2026-05-01 13:11 | 47.52638 | 3.12922 | 34894 ft | 421 kts | 155° |
| 2026-05-01 13:11 | 47.49929 | 3.14608 | 35065 ft | 423 kts | 156° |
| 2026-05-01 13:11 | 47.47254 | 3.16268 | 35215 ft | 424 kts | 156° |
| 2026-05-01 13:12 | 47.41811 | 3.19651 | 35247 ft | 419 kts | 156° |
| 2026-05-01 13:12 | 47.36472 | 3.22964 | 35249 ft | 419 kts | 156° |
| 2026-05-01 13:13 | 47.31972 | 3.25742 | 35248 ft | 419 kts | 156° |
| 2026-05-01 13:13 | 47.26597 | 3.29060 | 35248 ft | 419 kts | 156° |
| 2026-05-01 13:14 | 47.21223 | 3.32384 | 35246 ft | 419 kts | 156° |
| 2026-05-01 13:14 | 47.15845 | 3.35688 | 35245 ft | 419 kts | 156° |
| 2026-05-01 13:15 | 47.10463 | 3.38987 | 35243 ft | 419 kts | 156° |
| 2026-05-01 13:15 | 47.05082 | 3.42284 | 35245 ft | 419 kts | 156° |
| 2026-05-01 13:16 | 46.99693 | 3.45572 | 35246 ft | 419 kts | 156° |
| 2026-05-01 13:16 | 46.94312 | 3.48849 | 35247 ft | 419 kts | 156° |
| 2026-05-01 13:17 | 46.83510 | 3.55414 | 35250 ft | 419 kts | 156° |
| 2026-05-01 13:18 | 46.75500 | 3.60457 | 35251 ft | 418 kts | 149° |
| 2026-05-01 13:18 | 46.73151 | 3.62933 | 35249 ft | 417 kts | 137° |
| 2026-05-01 13:18 | 46.71216 | 3.66077 | 35247 ft | 418 kts | 126° |
| 2026-05-01 13:19 | 46.69779 | 3.69753 | 35242 ft | 420 kts | 114° |
| 2026-05-01 13:19 | 46.68883 | 3.73800 | 35236 ft | 422 kts | 106° |
| 2026-05-01 13:20 | 46.66772 | 3.86271 | 35231 ft | 424 kts | 107° |
| 2026-05-01 13:20 | 46.65334 | 3.94611 | 35232 ft | 424 kts | 107° |
| 2026-05-01 13:21 | 46.63173 | 4.07102 | 35225 ft | 425 kts | 106° |
| 2026-05-01 13:21 | 46.61698 | 4.15555 | 35248 ft | 438 kts | 105° |
| 2026-05-01 13:22 | 46.60180 | 4.24246 | 35247 ft | 448 kts | 105° |
| 2026-05-01 13:22 | 46.58637 | 4.33060 | 35247 ft | 451 kts | 105° |
| 2026-05-01 13:23 | 46.57079 | 4.41892 | 35246 ft | 451 kts | 106° |
| 2026-05-01 13:23 | 46.55508 | 4.50721 | 35247 ft | 452 kts | 106° |
| 2026-05-01 13:24 | 46.53916 | 4.59605 | 35251 ft | 451 kts | 106° |
| 2026-05-01 13:25 | 46.51541 | 4.72827 | 35263 ft | 451 kts | 106° |
| 2026-05-01 13:25 | 46.49946 | 4.81631 | 35248 ft | 451 kts | 106° |
| 2026-05-01 13:26 | 46.48343 | 4.90426 | 35247 ft | 451 kts | 106° |
| 2026-05-01 13:26 | 46.46741 | 4.99208 | 35247 ft | 450 kts | 106° |
| 2026-05-01 13:27 | 46.45133 | 5.07974 | 35247 ft | 450 kts | 106° |
| 2026-05-01 13:27 | 46.42719 | 5.21141 | 35244 ft | 450 kts | 106° |
| 2026-05-01 13:28 | 46.40290 | 5.34270 | 35243 ft | 450 kts | 107° |
| 2026-05-01 13:29 | 46.38053 | 5.42665 | 35236 ft | 447 kts | 122° |
| 2026-05-01 13:29 | 46.34285 | 5.49765 | 35231 ft | 444 kts | 132° |
| 2026-05-01 13:31 | 46.22212 | 5.70219 | 35232 ft | 447 kts | 132° |
| 2026-05-01 13:32 | 46.12142 | 5.87118 | 35300 ft | 441 kts | 132° |
| 2026-05-01 13:33 | 46.02185 | 6.03763 | 35297 ft | 436 kts | 132° |
| 2026-05-01 13:34 | 45.94228 | 6.16974 | 35286 ft | 435 kts | 133° |
| 2026-05-01 13:35 | 45.88280 | 6.26820 | 35280 ft | 435 kts | 133° |
| 2026-05-01 13:36 | 45.82305 | 6.36649 | 35265 ft | 436 kts | 133° |
| 2026-05-01 13:36 | 45.75265 | 6.44758 | 35273 ft | 434 kts | 146° |
| 2026-05-01 13:37 | 45.70345 | 6.49760 | 35266 ft | 434 kts | 146° |
| 2026-05-01 13:37 | 45.65423 | 6.54762 | 35247 ft | 434 kts | 146° |
| 2026-05-01 13:38 | 45.58019 | 6.62281 | 35244 ft | 437 kts | 146° |
| 2026-05-01 13:39 | 45.53056 | 6.67291 | 35284 ft | 436 kts | 146° |
| 2026-05-01 13:39 | 45.48098 | 6.72286 | 35251 ft | 437 kts | 146° |
| 2026-05-01 13:40 | 45.43101 | 6.77311 | 35252 ft | 437 kts | 146° |
| 2026-05-01 13:40 | 45.38118 | 6.82321 | 35245 ft | 439 kts | 146° |
| 2026-05-01 13:41 | 45.33116 | 6.87327 | 35248 ft | 440 kts | 146° |
| 2026-05-01 13:41 | 45.28079 | 6.92363 | 35301 ft | 446 kts | 146° |
| 2026-05-01 13:42 | 45.23374 | 6.98222 | 35299 ft | 455 kts | 137° |
| 2026-05-01 13:42 | 45.18812 | 7.04517 | 35300 ft | 459 kts | 137° |
| 2026-05-01 13:43 | 45.14209 | 7.10846 | 35306 ft | 461 kts | 137° |
| 2026-05-01 13:43 | 45.09827 | 7.17381 | 35290 ft | 458 kts | 126° |
| 2026-05-01 13:44 | 45.06171 | 7.24771 | 35279 ft | 459 kts | 126° |
| 2026-05-01 13:44 | 45.02496 | 7.32151 | 35285 ft | 459 kts | 126° |
| 2026-05-01 13:45 | 44.98811 | 7.39519 | 35298 ft | 459 kts | 127° |
| 2026-05-01 13:45 | 44.94640 | 7.46294 | 35309 ft | 457 kts | 133° |
| 2026-05-01 13:46 | 44.90372 | 7.52919 | 35313 ft | 456 kts | 133° |
| 2026-05-01 13:46 | 44.86806 | 7.58445 | 35311 ft | 455 kts | 133° |
| 2026-05-01 13:47 | 44.82534 | 7.65053 | 35310 ft | 455 kts | 133° |
| 2026-05-01 13:47 | 44.78274 | 7.71635 | 35309 ft | 455 kts | 133° |
| 2026-05-01 13:48 | 44.74004 | 7.78216 | 35304 ft | 455 kts | 133° |
| 2026-05-01 13:48 | 44.69736 | 7.84770 | 35304 ft | 455 kts | 133° |
| 2026-05-01 13:49 | 44.65462 | 7.91322 | 35305 ft | 455 kts | 133° |
| 2026-05-01 13:49 | 44.61184 | 7.97864 | 35298 ft | 455 kts | 133° |
| 2026-05-01 13:50 | 44.56900 | 8.04402 | 35293 ft | 455 kts | 133° |
| 2026-05-01 13:50 | 44.52610 | 8.10929 | 35286 ft | 455 kts | 133° |
| 2026-05-01 13:51 | 44.48314 | 8.17450 | 35286 ft | 456 kts | 133° |
| 2026-05-01 13:51 | 44.46160 | 8.20718 | 35165 ft | 459 kts | 135° |
| 2026-05-01 13:51 | 44.43985 | 8.24013 | 35009 ft | 460 kts | 135° |
| 2026-05-01 13:52 | 44.39656 | 8.30552 | 35024 ft | 457 kts | 135° |
| 2026-05-01 13:52 | 44.35396 | 8.36981 | 35000 ft | 442 kts | 135° |
| 2026-05-01 13:53 | 44.31276 | 8.43179 | 35003 ft | 430 kts | 134° |
| 2026-05-01 13:53 | 44.25217 | 8.52266 | 34999 ft | 421 kts | 132° |
| 2026-05-01 13:54 | 44.21207 | 8.58259 | 34998 ft | 424 kts | 130° |
| 2026-05-01 13:54 | 44.17162 | 8.64307 | 34978 ft | 428 kts | 130° |
| 2026-05-01 13:55 | 44.13086 | 8.70381 | 34974 ft | 430 kts | 130° |
| 2026-05-01 13:55 | 44.08983 | 8.76472 | 34976 ft | 432 kts | 130° |
| 2026-05-01 13:56 | 44.04868 | 8.82576 | 34980 ft | 433 kts | 130° |
| 2026-05-01 13:56 | 44.00743 | 8.88693 | 34983 ft | 434 kts | 130° |
| 2026-05-01 13:57 | 43.96614 | 8.94799 | 34998 ft | 434 kts | 130° |
| 2026-05-01 13:57 | 43.92471 | 9.00899 | 34989 ft | 434 kts | 130° |
| 2026-05-01 13:58 | 43.88330 | 9.06986 | 34995 ft | 434 kts | 130° |
| 2026-05-01 13:58 | 43.84182 | 9.13071 | 35001 ft | 434 kts | 130° |
| 2026-05-01 13:59 | 43.80008 | 9.19123 | 34991 ft | 435 kts | 134° |
| 2026-05-01 13:59 | 43.75339 | 9.24564 | 35218 ft | 441 kts | 137° |
| 2026-05-01 14:00 | 43.72986 | 9.27267 | 35516 ft | 439 kts | 137° |
| 2026-05-01 14:00 | 43.70647 | 9.29951 | 35912 ft | 434 kts | 138° |
| 2026-05-01 14:00 | 43.68337 | 9.32594 | 36356 ft | 428 kts | 139° |
| 2026-05-01 14:00 | 43.66057 | 9.35199 | 36754 ft | 423 kts | 140° |
| 2026-05-01 14:01 | 43.63795 | 9.37788 | 36973 ft | 421 kts | 140° |
| 2026-05-01 14:01 | 43.61559 | 9.40346 | 37212 ft | 415 kts | 142° |
| 2026-05-01 14:01 | 43.57151 | 9.45385 | 37301 ft | 412 kts | 145° |
| 2026-05-01 14:02 | 43.52677 | 9.50470 | 37300 ft | 422 kts | 146° |
| 2026-05-01 14:02 | 43.47774 | 9.54877 | 37302 ft | 422 kts | 160° |
| 2026-05-01 14:03 | 43.42457 | 9.58530 | 37300 ft | 433 kts | 159° |
| 2026-05-01 14:03 | 43.36971 | 9.62310 | 37301 ft | 444 kts | 156° |
| 2026-05-01 14:04 | 43.31381 | 9.66167 | 37303 ft | 455 kts | 154° |
| 2026-05-01 14:04 | 43.26632 | 9.69432 | 37302 ft | 464 kts | 154° |
| 2026-05-01 14:05 | 43.19796 | 9.74117 | 37303 ft | 476 kts | 154° |
| 2026-05-01 14:05 | 43.13804 | 9.78218 | 37303 ft | 486 kts | 154° |
| 2026-05-01 14:06 | 43.07703 | 9.82376 | 37302 ft | 492 kts | 154° |
| 2026-05-01 14:06 | 43.01572 | 9.86550 | 37301 ft | 493 kts | 154° |
| 2026-05-01 14:07 | 42.95423 | 9.90737 | 37301 ft | 493 kts | 154° |
| 2026-05-01 14:08 | 42.86200 | 9.96985 | 37303 ft | 494 kts | 154° |
| 2026-05-01 14:08 | 42.80048 | 10.01137 | 37305 ft | 494 kts | 154° |
| 2026-05-01 14:09 | 42.73890 | 10.05282 | 37307 ft | 494 kts | 154° |
| 2026-05-01 14:09 | 42.67730 | 10.09424 | 37309 ft | 494 kts | 154° |
| 2026-05-01 14:10 | 42.61566 | 10.13564 | 37310 ft | 494 kts | 154° |
| 2026-05-01 14:10 | 42.55404 | 10.17686 | 37310 ft | 494 kts | 154° |
| 2026-05-01 14:11 | 42.49244 | 10.21804 | 37311 ft | 494 kts | 154° |
| 2026-05-01 14:11 | 42.39963 | 10.27992 | 37248 ft | 498 kts | 156° |
| 2026-05-01 14:12 | 42.33729 | 10.32128 | 37247 ft | 500 kts | 156° |
| 2026-05-01 14:12 | 42.27462 | 10.36285 | 37251 ft | 502 kts | 156° |
| 2026-05-01 14:13 | 42.22201 | 10.39769 | 37255 ft | 503 kts | 156° |
| 2026-05-01 14:13 | 42.14885 | 10.44590 | 37262 ft | 504 kts | 156° |
| 2026-05-01 14:14 | 42.08580 | 10.48735 | 37267 ft | 504 kts | 156° |
| 2026-05-01 14:14 | 42.02278 | 10.52881 | 37272 ft | 504 kts | 156° |
| 2026-05-01 14:15 | 41.95970 | 10.57025 | 37276 ft | 504 kts | 156° |
| 2026-05-01 14:15 | 41.89659 | 10.61155 | 37279 ft | 504 kts | 157° |
| 2026-05-01 14:16 | 41.83306 | 10.65298 | 37281 ft | 504 kts | 157° |
| 2026-05-01 14:16 | 41.76990 | 10.69413 | 37282 ft | 504 kts | 157° |
| 2026-05-01 14:17 | 41.70676 | 10.73515 | 37283 ft | 504 kts | 157° |
| 2026-05-01 14:17 | 41.64357 | 10.77608 | 37284 ft | 504 kts | 157° |
| 2026-05-01 14:18 | 41.58039 | 10.81696 | 37285 ft | 504 kts | 157° |
| 2026-05-01 14:18 | 41.52787 | 10.85090 | 37284 ft | 504 kts | 157° |
| 2026-05-01 14:19 | 41.46471 | 10.89170 | 37284 ft | 504 kts | 157° |
| 2026-05-01 14:19 | 41.39083 | 10.93917 | 37285 ft | 504 kts | 157° |
| 2026-05-01 14:20 | 41.30670 | 10.99298 | 37283 ft | 504 kts | 157° |
| 2026-05-01 14:21 | 41.24348 | 11.03342 | 37284 ft | 504 kts | 157° |
| 2026-05-01 14:21 | 41.18000 | 11.07403 | 37468 ft | 496 kts | 159° |
| 2026-05-01 14:22 | 41.11884 | 11.11334 | 38234 ft | 486 kts | 159° |
| 2026-05-01 14:22 | 41.08807 | 11.13305 | 38257 ft | 487 kts | 159° |
| 2026-05-01 14:22 | 41.05728 | 11.15250 | 37528 ft | 493 kts | 159° |
| 2026-05-01 14:22 | 41.02611 | 11.17205 | 37259 ft | 498 kts | 159° |
| 2026-05-01 14:23 | 40.99470 | 11.19173 | 37158 ft | 500 kts | 159° |
| 2026-05-01 14:23 | 40.96319 | 11.21149 | 37198 ft | 503 kts | 159° |
| 2026-05-01 14:23 | 40.90003 | 11.25132 | 37189 ft | 504 kts | 159° |
| 2026-05-01 14:24 | 40.83677 | 11.29133 | 37197 ft | 504 kts | 159° |
| 2026-05-01 14:24 | 40.77354 | 11.33127 | 37193 ft | 504 kts | 159° |
| 2026-05-01 14:25 | 40.71027 | 11.37109 | 37194 ft | 504 kts | 159° |
| 2026-05-01 14:25 | 40.64689 | 11.41074 | 37198 ft | 504 kts | 159° |
| 2026-05-01 14:26 | 40.55192 | 11.47009 | 37198 ft | 504 kts | 159° |
| 2026-05-01 14:27 | 40.48852 | 11.50960 | 37199 ft | 504 kts | 159° |
| 2026-05-01 14:27 | 40.42512 | 11.54900 | 37200 ft | 504 kts | 159° |
| 2026-05-01 14:28 | 40.33008 | 11.60802 | 37201 ft | 504 kts | 159° |
| 2026-05-01 14:28 | 40.26665 | 11.64724 | 37203 ft | 504 kts | 159° |
| 2026-05-01 14:29 | 40.20315 | 11.68650 | 37202 ft | 504 kts | 159° |
| 2026-05-01 14:30 | 40.07635 | 11.76452 | 37202 ft | 504 kts | 159° |
| 2026-05-01 14:31 | 39.98112 | 11.82285 | 37202 ft | 504 kts | 159° |
| 2026-05-01 14:31 | 39.91740 | 11.86194 | 37221 ft | 502 kts | 160° |
| 2026-05-01 14:32 | 39.85435 | 11.90034 | 37224 ft | 499 kts | 161° |
| 2026-05-01 14:32 | 39.79106 | 11.93657 | 37220 ft | 496 kts | 162° |
| 2026-05-01 14:33 | 39.72765 | 11.97141 | 37219 ft | 494 kts | 162° |
| 2026-05-01 14:33 | 39.66440 | 12.00644 | 37215 ft | 494 kts | 162° |
| 2026-05-01 14:34 | 39.60135 | 12.04189 | 37211 ft | 494 kts | 162° |
| 2026-05-01 14:34 | 39.53835 | 12.07740 | 37208 ft | 493 kts | 162° |
| 2026-05-01 14:35 | 39.47532 | 12.11266 | 37207 ft | 493 kts | 162° |
| 2026-05-01 14:35 | 39.41226 | 12.14778 | 37207 ft | 493 kts | 162° |
| 2026-05-01 14:36 | 39.34918 | 12.18273 | 37203 ft | 493 kts | 162° |
| 2026-05-01 14:36 | 39.28619 | 12.21773 | 37204 ft | 493 kts | 162° |
| 2026-05-01 14:37 | 39.22316 | 12.25277 | 37202 ft | 493 kts | 162° |
| 2026-05-01 14:37 | 39.16011 | 12.28751 | 37202 ft | 493 kts | 162° |
| 2026-05-01 14:38 | 39.09707 | 12.32226 | 37202 ft | 493 kts | 162° |
| 2026-05-01 14:38 | 39.03402 | 12.35699 | 37201 ft | 493 kts | 162° |
| 2026-05-01 14:39 | 38.97051 | 12.39184 | 37201 ft | 493 kts | 162° |
| 2026-05-01 14:39 | 38.90744 | 12.42640 | 37201 ft | 493 kts | 162° |
| 2026-05-01 14:40 | 38.84537 | 12.46422 | 37201 ft | 497 kts | 155° |
| 2026-05-01 14:40 | 38.78490 | 12.50729 | 37200 ft | 497 kts | 156° |
| 2026-05-01 14:41 | 38.72438 | 12.55017 | 37199 ft | 497 kts | 156° |
| 2026-05-01 14:41 | 38.66385 | 12.59290 | 37201 ft | 495 kts | 157° |
| 2026-05-01 14:42 | 38.60363 | 12.63528 | 37196 ft | 493 kts | 157° |
| 2026-05-01 14:42 | 38.54372 | 12.67742 | 37192 ft | 491 kts | 157° |
| 2026-05-01 14:43 | 38.48386 | 12.71939 | 37188 ft | 490 kts | 157° |
| 2026-05-01 14:43 | 38.42407 | 12.76116 | 37184 ft | 489 kts | 157° |
| 2026-05-01 14:44 | 38.36447 | 12.80284 | 37183 ft | 489 kts | 157° |
| 2026-05-01 14:44 | 38.27489 | 12.86534 | 37180 ft | 489 kts | 157° |
| 2026-05-01 14:45 | 38.18542 | 12.92763 | 37183 ft | 489 kts | 157° |
| 2026-05-01 14:46 | 38.12576 | 12.96900 | 37178 ft | 488 kts | 158° |
| 2026-05-01 14:46 | 38.03622 | 13.03089 | 37177 ft | 488 kts | 158° |
| 2026-05-01 14:47 | 37.97651 | 13.07213 | 37169 ft | 489 kts | 158° |
| 2026-05-01 14:48 | 37.88647 | 13.13419 | 37165 ft | 489 kts | 158° |
| 2026-05-01 14:48 | 37.79664 | 13.19595 | 37163 ft | 490 kts | 158° |
| 2026-05-01 14:49 | 37.67671 | 13.27817 | 37163 ft | 491 kts | 158° |
| 2026-05-01 14:50 | 37.55649 | 13.36010 | 37166 ft | 491 kts | 158° |
| 2026-05-01 14:51 | 37.46587 | 13.42168 | 35971 ft | 497 kts | 158° |
| 2026-05-01 14:52 | 37.40532 | 13.46292 | 34789 ft | 493 kts | 157° |
| 2026-05-01 14:52 | 37.37522 | 13.48340 | 34201 ft | 491 kts | 157° |
| 2026-05-01 14:52 | 37.32534 | 13.51719 | 33210 ft | 488 kts | 157° |
| 2026-05-01 14:53 | 37.29555 | 13.53729 | 32616 ft | 486 kts | 157° |
| 2026-05-01 14:53 | 37.26576 | 13.55737 | 32036 ft | 484 kts | 157° |
| 2026-05-01 14:53 | 37.23613 | 13.57731 | 31455 ft | 482 kts | 157° |
| 2026-05-01 14:53 | 37.20669 | 13.59711 | 30883 ft | 479 kts | 157° |
| 2026-05-01 14:54 | 37.17742 | 13.61682 | 30330 ft | 476 kts | 156° |
| 2026-05-01 14:54 | 37.14793 | 13.63671 | 29780 ft | 473 kts | 156° |
| 2026-05-01 14:54 | 37.11888 | 13.65554 | 29306 ft | 465 kts | 161° |
| 2026-05-01 14:54 | 37.08918 | 13.67106 | 28823 ft | 459 kts | 163° |
| 2026-05-01 14:55 | 37.06015 | 13.68601 | 28309 ft | 456 kts | 163° |
| 2026-05-01 14:55 | 37.03097 | 13.70098 | 27846 ft | 451 kts | 163° |
| 2026-05-01 14:55 | 37.00172 | 13.71598 | 27365 ft | 446 kts | 163° |
| 2026-05-01 14:55 | 36.97314 | 13.73065 | 26896 ft | 442 kts | 163° |
| 2026-05-01 14:56 | 36.94488 | 13.74514 | 26417 ft | 437 kts | 163° |
| 2026-05-01 14:56 | 36.91687 | 13.75950 | 25941 ft | 433 kts | 163° |
| 2026-05-01 14:56 | 36.88907 | 13.77377 | 25467 ft | 429 kts | 163° |
| 2026-05-01 14:56 | 36.86157 | 13.78787 | 24971 ft | 426 kts | 163° |
| 2026-05-01 14:57 | 36.83425 | 13.80186 | 24481 ft | 422 kts | 163° |
| 2026-05-01 14:57 | 36.78029 | 13.82943 | 23492 ft | 416 kts | 163° |
| 2026-05-01 14:57 | 36.75355 | 13.84309 | 23005 ft | 413 kts | 163° |
| 2026-05-01 14:58 | 36.72706 | 13.85664 | 22518 ft | 411 kts | 163° |
| 2026-05-01 14:58 | 36.70066 | 13.87016 | 22049 ft | 409 kts | 162° |
| 2026-05-01 14:58 | 36.67446 | 13.88356 | 21580 ft | 406 kts | 162° |
| 2026-05-01 14:58 | 36.64839 | 13.89685 | 21115 ft | 404 kts | 162° |
| 2026-05-01 14:59 | 36.62254 | 13.91002 | 20660 ft | 401 kts | 162° |
| 2026-05-01 14:59 | 36.59671 | 13.92314 | 20201 ft | 399 kts | 162° |
| 2026-05-01 14:59 | 36.57108 | 13.93614 | 19749 ft | 396 kts | 162° |
| 2026-05-01 14:59 | 36.54570 | 13.94902 | 19313 ft | 394 kts | 162° |
| 2026-05-01 15:00 | 36.49543 | 13.97455 | 18515 ft | 387 kts | 161° |
| 2026-05-01 15:00 | 36.47046 | 13.98720 | 18072 ft | 385 kts | 162° |
| 2026-05-01 15:00 | 36.44567 | 13.99973 | 17615 ft | 383 kts | 161° |
| 2026-05-01 15:01 | 36.42109 | 14.01215 | 17168 ft | 382 kts | 161° |
| 2026-05-01 15:01 | 36.39663 | 14.02451 | 16774 ft | 379 kts | 162° |
| 2026-05-01 15:01 | 36.37245 | 14.03676 | 16464 ft | 373 kts | 162° |
| 2026-05-01 15:01 | 36.34843 | 14.04894 | 16040 ft | 372 kts | 162° |
| 2026-05-01 15:02 | 36.32460 | 14.06099 | 15543 ft | 367 kts | 162° |
| 2026-05-01 15:02 | 36.30875 | 14.06901 | 15161 ft | 362 kts | 162° |
| 2026-05-01 15:02 | 36.27857 | 14.08425 | 14639 ft | 345 kts | 162° |
| 2026-05-01 15:02 | 36.25668 | 14.09530 | 14269 ft | 334 kts | 161° |
| 2026-05-01 15:03 | 36.23521 | 14.10613 | 13894 ft | 323 kts | 161° |
| 2026-05-01 15:03 | 36.21467 | 14.11647 | 13541 ft | 314 kts | 161° |
| 2026-05-01 15:03 | 36.19497 | 14.12636 | 13201 ft | 308 kts | 161° |
| 2026-05-01 15:03 | 36.17486 | 14.13642 | 12849 ft | 307 kts | 161° |
| 2026-05-01 15:04 | 36.15517 | 14.14627 | 12506 ft | 306 kts | 161° |
| 2026-05-01 15:04 | 36.13532 | 14.15620 | 12149 ft | 307 kts | 161° |
| 2026-05-01 15:04 | 36.11572 | 14.16597 | 11796 ft | 308 kts | 161° |
| 2026-05-01 15:04 | 36.09595 | 14.17584 | 11441 ft | 308 kts | 161° |
| 2026-05-01 15:05 | 36.07567 | 14.18600 | 11070 ft | 309 kts | 160° |
| 2026-05-01 15:05 | 36.05558 | 14.19542 | 10691 ft | 309 kts | 167° |
| 2026-05-01 15:05 | 36.03456 | 14.19974 | 10322 ft | 306 kts | 181° |
| 2026-05-01 15:05 | 36.01385 | 14.19811 | 9940 ft | 301 kts | 194° |
| 2026-05-01 15:06 | 35.99333 | 14.19211 | 9566 ft | 298 kts | 198° |
| 2026-05-01 15:06 | 35.97320 | 14.18602 | 9183 ft | 298 kts | 197° |
| 2026-05-01 15:06 | 35.95311 | 14.17999 | 8795 ft | 297 kts | 197° |
| 2026-05-01 15:06 | 35.93303 | 14.17402 | 8412 ft | 296 kts | 196° |
| 2026-05-01 15:07 | 35.91331 | 14.16820 | 8011 ft | 287 kts | 196° |
| 2026-05-01 15:07 | 35.89417 | 14.16253 | 7641 ft | 281 kts | 195° |
| 2026-05-01 15:07 | 35.87521 | 14.15690 | 7348 ft | 277 kts | 195° |
| 2026-05-01 15:07 | 35.85666 | 14.15137 | 7122 ft | 271 kts | 195° |
| 2026-05-01 15:08 | 35.83810 | 14.14859 | 6998 ft | 270 kts | 179° |
| 2026-05-01 15:08 | 35.81964 | 14.15255 | 6813 ft | 272 kts | 162° |
| 2026-05-01 15:08 | 35.80278 | 14.16312 | 6313 ft | 270 kts | 143° |
| 2026-05-01 15:08 | 35.78757 | 14.17671 | 5748 ft | 268 kts | 143° |
| 2026-05-01 15:09 | 35.77260 | 14.18996 | 5208 ft | 265 kts | 143° |
| 2026-05-01 15:09 | 35.75782 | 14.20294 | 4853 ft | 254 kts | 143° |
| 2026-05-01 15:09 | 35.74392 | 14.21513 | 4719 ft | 240 kts | 144° |
| 2026-05-01 15:09 | 35.73262 | 14.22908 | 4602 ft | 223 kts | 116° |
| 2026-05-01 15:10 | 35.72898 | 14.24676 | 4490 ft | 213 kts | 85° |
| 2026-05-01 15:10 | 35.74178 | 14.27871 | 3614 ft | 210 kts | 51° |
| 2026-05-01 15:10 | 35.75031 | 14.29315 | 3183 ft | 207 kts | 52° |
| 2026-05-01 15:11 | 35.75851 | 14.30712 | 3047 ft | 194 kts | 53° |
| 2026-05-01 15:11 | 35.77302 | 14.33204 | 2816 ft | 169 kts | 55° |
| 2026-05-01 15:11 | 35.77975 | 14.34357 | 2575 ft | 163 kts | 56° |
| 2026-05-01 15:12 | 35.78628 | 14.35478 | 2361 ft | 158 kts | 57° |
| 2026-05-01 15:12 | 35.79903 | 14.37671 | 1946 ft | 156 kts | 59° |
| 2026-05-01 15:12 | 35.80527 | 14.38743 | 1739 ft | 152 kts | 59° |
| 2026-05-01 15:13 | 35.82303 | 14.41794 | 1160 ft | 140 kts | 58° |
| 2026-05-01 15:14 | 35.83413 | 14.43727 | 807 ft | 138 kts | 56° |
| 2026-05-01 15:14 | 35.83976 | 14.44697 | 626 ft | 137 kts | 56° |
| 2026-05-01 15:14 | 35.85084 | 14.46592 | 296 ft | 127 kts | 54° |
| 2026-05-01 15:15 | 35.85517 | 14.47337 | 274 ft | 5 kts | 54° |
| 2026-05-01 15:15 | 35.85658 | 14.47501 | 269 ft | 11 kts | 1° |
| 2026-05-01 15:16 | 35.85754 | 14.47499 | 267 ft | 0 kts | 359° |
| 2026-05-01 15:18 | 35.85837 | 14.47555 | 265 ft | 11 kts | 64° |
| 2026-05-01 15:18 | 35.85872 | 14.47665 | 263 ft | 17 kts | 69° |
| 2026-05-01 15:19 | 35.85928 | 14.47845 | 261 ft | 1 kts | 70° |
| 2026-05-01 15:19 | 35.85986 | 14.48014 | 257 ft | 17 kts | 64° |
| 2026-05-01 15:19 | 35.86009 | 14.48108 | 255 ft | 12 kts | 109° |
| 2026-05-01 15:20 | 35.85849 | 14.48169 | 257 ft | 10 kts | 171° |
| 2026-05-01 15:20 | 35.85774 | 14.48184 | 259 ft | 12 kts | 171° |
| 2026-05-01 15:20 | 35.85697 | 14.48199 | 260 ft | 11 kts | 171° |
| 2026-05-01 15:21 | 35.85606 | 14.48219 | 261 ft | 15 kts | 160° |
| 2026-05-01 15:21 | 35.85524 | 14.48306 | 261 ft | 17 kts | 133° |
| 2026-05-01 15:21 | 35.85437 | 14.48415 | 260 ft | 19 kts | 134° |
| 2026-05-01 15:21 | 35.85344 | 14.48531 | 260 ft | 18 kts | 134° |
| 2026-05-01 15:22 | 35.85117 | 14.48719 | 258 ft | 20 kts | 134° |
| 2026-05-01 15:22 | 35.85033 | 14.48863 | 257 ft | 21 kts | 124° |
| 2026-05-01 15:22 | 35.84960 | 14.49014 | 255 ft | 20 kts | 120° |
| 2026-05-01 15:23 | 35.84903 | 14.49102 | 255 ft | 11 kts | 128° |
| 2026-05-01 15:23 | 35.84929 | 14.49183 | 255 ft | 11 kts | 43° |
| 2026-05-01 15:23 | 35.84929 | 14.49268 | 254 ft | 12 kts | 114° |
| 2026-05-01 15:23 | 35.84869 | 14.49351 | 254 ft | 14 kts | 134° |
| 2026-05-01 15:24 | 35.84807 | 14.49427 | 253 ft | 8 kts | 135° |
| 2026-05-01 15:24 | 35.84768 | 14.49475 | 253 ft | 7 kts | 134° |
| 2026-05-01 15:24 | 35.84779 | 14.49513 | 252 ft | 4 kts | 21° |
| 2026-05-01 15:24 | 35.84804 | 14.49513 | 253 ft | 3 kts | 1° |
| 2026-05-01 15:25 | 35.84808 | 14.49513 | 253 ft | 0 kts | 0° |